createdAt,value
2023-02-09T00:00:02.879Z,102370.25
2023-02-09T00:02:29.445Z,102359.38
2023-02-09T00:04:55.878Z,102363.25
2023-02-09T00:07:22.198Z,102370.63
2023-02-09T00:09:48.548Z,102371.41
2023-02-09T00:12:14.926Z,102369.50
2023-02-09T00:14:41.286Z,102356.25
2023-02-09T00:17:07.723Z,102353.16
2023-02-09T00:19:34.091Z,102361.69
2023-02-09T00:22:00.448Z,102355.88
2023-02-09T00:24:26.814Z,102355.47
2023-02-09T00:26:53.122Z,102351.22
2023-02-09T00:29:19.424Z,102345.38
2023-02-09T00:31:45.778Z,102346.53
2023-02-09T00:34:12.149Z,102350.03
2023-02-09T00:36:38.507Z,102354.31
2023-02-09T00:39:04.869Z,102357.41
2023-02-09T00:41:31.177Z,102353.53
2023-02-09T00:43:57.540Z,102350.44
2023-02-09T00:46:23.865Z,102341.88
2023-02-09T00:48:50.224Z,102342.63
2023-02-09T00:51:16.628Z,102342.66
2023-02-09T00:53:42.983Z,102346.53
2023-02-09T00:56:09.345Z,102351.56
2023-02-09T00:58:35.658Z,102354.69
2023-02-09T01:01:02.086Z,102356.25
2023-02-09T01:03:28.427Z,102348.50
2023-02-09T01:05:54.747Z,102352.78
2023-02-09T01:08:21.255Z,102347.72
2023-02-09T01:10:47.698Z,102348.88
2023-02-09T01:13:14.153Z,102351.22
2023-02-09T01:15:40.467Z,102345.00
2023-02-09T01:18:06.850Z,102349.25
2023-02-09T01:20:33.167Z,102346.94
2023-02-09T01:22:59.515Z,102357.41
2023-02-09T01:25:25.858Z,102353.56
2023-02-09T01:27:52.284Z,102355.47
2023-02-09T01:30:18.704Z,102354.69
2023-02-09T01:32:45.060Z,102358.19
2023-02-09T01:35:11.387Z,102362.50
2023-02-09T01:37:37.738Z,102363.66
2023-02-09T01:40:04.118Z,102367.56
2023-02-09T01:42:30.495Z,102367.56
2023-02-09T01:44:56.830Z,102355.47
2023-02-09T01:47:23.183Z,102351.97
2023-02-09T01:49:49.552Z,102355.88
2023-02-09T01:52:15.873Z,102360.56
2023-02-09T01:54:42.205Z,102354.31
2023-02-09T01:57:08.579Z,102354.69
2023-02-09T01:59:34.920Z,102352.38
2023-02-09T02:02:01.241Z,102356.25
2023-02-09T02:04:27.570Z,102359.75
2023-02-09T02:06:53.900Z,102351.97
2023-02-09T02:09:20.254Z,102354.31
2023-02-09T02:11:46.621Z,102358.97
2023-02-09T02:14:12.959Z,102360.13
2023-02-09T02:16:39.326Z,102361.69
2023-02-09T02:19:05.650Z,102367.16
2023-02-09T02:21:31.950Z,102374.16
2023-02-09T02:23:58.295Z,102375.31
2023-02-09T02:26:24.616Z,102374.50
2023-02-09T02:28:50.936Z,102374.53
2023-02-09T02:31:17.473Z,102371.44
2023-02-09T02:33:43.941Z,102369.09
2023-02-09T02:36:10.301Z,102369.88
2023-02-09T02:38:36.667Z,102369.09
2023-02-09T02:41:03.121Z,102370.66
2023-02-09T02:43:29.485Z,102366.78
2023-02-09T02:45:55.838Z,102361.72
2023-02-09T02:48:22.177Z,102356.66
2023-02-09T02:50:48.843Z,102360.53
2023-02-09T02:53:15.335Z,102364.03
2023-02-09T02:55:41.655Z,102354.69
2023-02-09T02:58:08.013Z,102360.53
2023-02-09T03:00:34.337Z,102355.88
2023-02-09T03:03:00.711Z,102361.34
2023-02-09T03:05:27.100Z,102354.31
2023-02-09T03:07:53.501Z,102354.69
2023-02-09T03:10:19.893Z,102365.22
2023-02-09T03:12:46.215Z,102355.91
2023-02-09T03:15:12.586Z,102367.56
2023-02-09T03:17:38.966Z,102370.66
2023-02-09T03:20:05.305Z,102366.00
2023-02-09T03:22:31.678Z,102362.50
2023-02-09T03:24:58.021Z,102365.66
2023-02-09T03:27:24.401Z,102360.16
2023-02-09T03:29:50.739Z,102361.34
2023-02-09T03:32:17.123Z,102355.50
2023-02-09T03:34:43.456Z,102368.34
2023-02-09T03:37:09.787Z,102362.13
2023-02-09T03:39:36.141Z,102360.56
2023-02-09T03:42:02.514Z,102353.97
2023-02-09T03:44:28.844Z,102354.75
2023-02-09T03:46:55.282Z,102344.25
2023-02-09T03:49:21.634Z,102331.78
2023-02-09T03:51:47.991Z,102338.44
2023-02-09T03:54:14.312Z,102343.44
2023-02-09T03:56:40.670Z,102339.59
2023-02-09T03:59:06.998Z,102344.25
2023-02-09T04:01:33.402Z,102360.94
2023-02-09T04:03:59.772Z,102359.41
2023-02-09T04:06:26.131Z,102358.22
2023-02-09T04:08:52.456Z,102367.97
2023-02-09T04:11:18.764Z,102373.81
2023-02-09T04:13:45.141Z,102357.47
2023-02-09T04:16:11.541Z,102357.88
2023-02-09T04:18:38.041Z,102358.25
2023-02-09T04:21:04.397Z,102353.97
2023-02-09T04:23:30.767Z,102335.31
2023-02-09T04:25:57.182Z,102345.81
2023-02-09T04:28:23.647Z,102342.31
2023-02-09T04:30:50.112Z,102331.44
2023-02-09T04:33:16.552Z,102336.09
2023-02-09T04:35:42.865Z,102343.47
2023-02-09T04:38:09.173Z,102339.19
2023-02-09T04:40:35.529Z,102343.13
2023-02-09T04:43:01.893Z,102333.38
2023-02-09T04:45:28.290Z,102343.13
2023-02-09T04:47:54.681Z,102332.59
2023-02-09T04:50:21.010Z,102326.78
2023-02-09T04:52:47.359Z,102325.22
2023-02-09T04:55:13.700Z,102317.06
2023-02-09T04:57:40.061Z,102307.34
2023-02-09T05:00:06.450Z,102314.34
2023-02-09T05:02:32.832Z,102315.91
2023-02-09T05:04:59.168Z,102331.47
2023-02-09T05:07:25.488Z,102337.25
2023-02-09T05:09:51.841Z,102352.81
2023-02-09T05:12:18.250Z,102363.69
2023-02-09T05:14:44.623Z,102351.66
2023-02-09T05:17:10.932Z,102367.19
2023-02-09T05:19:37.238Z,102368.75
2023-02-09T05:22:03.574Z,102382.75
2023-02-09T05:24:29.930Z,102376.13
2023-02-09T05:26:56.300Z,102393.25
2023-02-09T05:29:22.667Z,102380.78
2023-02-09T05:31:49.025Z,102383.94
2023-02-09T05:34:15.456Z,102387.03
2023-02-09T05:36:41.801Z,102377.72
2023-02-09T05:39:08.136Z,102370.69
2023-02-09T05:41:34.451Z,102378.84
2023-02-09T05:44:00.800Z,102376.16
2023-02-09T05:46:27.219Z,102377.31
2023-02-09T05:48:53.628Z,102375.34
2023-02-09T05:51:19.986Z,102383.16
2023-02-09T05:53:46.376Z,102375.78
2023-02-09T05:56:12.778Z,102380.78
2023-02-09T05:58:39.092Z,102381.59
2023-02-09T06:01:05.410Z,102384.72
2023-02-09T06:03:31.814Z,102380.81
2023-02-09T06:05:58.313Z,102385.47
2023-02-09T06:08:24.625Z,102378.50
2023-02-09T06:10:50.941Z,102391.69
2023-02-09T06:13:17.304Z,102397.91
2023-02-09T06:15:43.694Z,102393.25
2023-02-09T06:18:10.081Z,102394.41
2023-02-09T06:20:36.390Z,102390.16
2023-02-09T06:23:02.753Z,102390.53
2023-02-09T06:25:29.149Z,102398.69
2023-02-09T06:27:55.520Z,102404.94
2023-02-09T06:30:21.864Z,102398.31
2023-02-09T06:32:48.174Z,102408.81
2023-02-09T06:35:14.497Z,102412.31
2023-02-09T06:37:40.818Z,102417.75
2023-02-09T06:40:07.141Z,102415.41
2023-02-09T06:42:33.525Z,102415.03
2023-02-09T06:44:59.906Z,102422.81
2023-02-09T06:47:26.242Z,102426.69
2023-02-09T06:49:52.549Z,102426.28
2023-02-09T06:52:19.081Z,102428.25
2023-02-09T06:54:45.394Z,102422.41
2023-02-09T06:57:11.744Z,102428.63
2023-02-09T06:59:38.115Z,102437.56
2023-02-09T07:02:04.523Z,102437.56
2023-02-09T07:04:30.923Z,102430.56
2023-02-09T07:06:57.319Z,102446.50
2023-02-09T07:09:23.682Z,102446.09
2023-02-09T07:11:49.993Z,102438.34
2023-02-09T07:14:16.371Z,102439.88
2023-02-09T07:16:42.702Z,102431.72
2023-02-09T07:19:09.092Z,102433.28
2023-02-09T07:21:35.418Z,102432.13
2023-02-09T07:24:01.770Z,102436.78
2023-02-09T07:26:28.152Z,102440.28
2023-02-09T07:28:54.462Z,102444.56
2023-02-09T07:31:20.911Z,102449.22
2023-02-09T07:33:47.308Z,102451.53
2023-02-09T07:36:13.665Z,102441.44
2023-02-09T07:38:40.236Z,102430.19
2023-02-09T07:41:06.832Z,102443.00
2023-02-09T07:43:33.155Z,102462.06
2023-02-09T07:45:59.483Z,102465.91
2023-02-09T07:48:25.859Z,102479.50
2023-02-09T07:50:52.210Z,102478.34
2023-02-09T07:53:18.541Z,102482.97
2023-02-09T07:55:45.126Z,102477.91
2023-02-09T07:58:11.684Z,102472.41
2023-02-09T08:00:38.059Z,102477.88
2023-02-09T08:03:04.384Z,102496.16
2023-02-09T08:05:30.895Z,102496.53
2023-02-09T08:07:57.265Z,102489.16
2023-02-09T08:10:23.619Z,102505.84
2023-02-09T08:12:49.963Z,102509.72
2023-02-09T08:15:16.284Z,102515.94
2023-02-09T08:17:42.656Z,102522.94
2023-02-09T08:20:09.091Z,102522.91
2023-02-09T08:22:35.452Z,102530.28
2023-02-09T08:25:01.771Z,102540.44
2023-02-09T08:27:28.099Z,102522.13
2023-02-09T08:29:54.452Z,102535.75
2023-02-09T08:32:20.846Z,102539.28
2023-02-09T08:34:47.228Z,102540.81
2023-02-09T08:37:13.580Z,102538.84
2023-02-09T08:39:39.965Z,102549.72
2023-02-09T08:42:06.347Z,102546.22
2023-02-09T08:44:32.735Z,102545.03
2023-02-09T08:46:59.175Z,102548.16
2023-02-09T08:49:25.620Z,102555.16
2023-02-09T08:51:52.005Z,102551.25
2023-02-09T08:54:18.338Z,102553.97
2023-02-09T08:56:44.655Z,102552.81
2023-02-09T08:59:10.982Z,102562.50
2023-02-09T09:01:37.298Z,102559.81
2023-02-09T09:04:03.661Z,102571.88
2023-02-09T09:06:30.050Z,102583.94
2023-02-09T09:08:56.386Z,102581.25
2023-02-09T09:11:22.789Z,102590.94
2023-02-09T09:13:49.116Z,102591.34
2023-02-09T09:16:15.497Z,102583.56
2023-02-09T09:18:41.836Z,102579.66
2023-02-09T09:21:08.191Z,102587.44
2023-02-09T09:23:34.594Z,102597.94
2023-02-09T09:26:00.974Z,102587.44
2023-02-09T09:28:27.338Z,102581.22
2023-02-09T09:30:53.771Z,102590.94
2023-02-09T09:33:20.146Z,102578.09
2023-02-09T09:35:46.835Z,102589.00
2023-02-09T09:38:13.456Z,102589.69
2023-02-09T09:40:39.812Z,102579.56
2023-02-09T09:43:06.141Z,102573.38
2023-02-09T09:45:32.498Z,102567.53
2023-02-09T09:47:58.863Z,102570.25
2023-02-09T09:50:26.416Z,102572.63
2023-02-09T09:52:52.956Z,102583.94
2023-02-09T09:55:19.270Z,102573.38
2023-02-09T09:57:45.582Z,102571.06
2023-02-09T10:00:11.908Z,102574.63
2023-02-09T10:02:38.284Z,102569.97
2023-02-09T10:05:04.654Z,102558.25
2023-02-09T10:07:30.974Z,102558.28
2023-02-09T10:09:57.343Z,102568.03
2023-02-09T10:12:23.702Z,102574.22
2023-02-09T10:14:50.016Z,102577.34
2023-02-09T10:17:16.326Z,102576.56
2023-02-09T10:19:42.657Z,102581.22
2023-02-09T10:22:08.972Z,102588.25
2023-02-09T10:24:35.340Z,102592.13
2023-02-09T10:27:01.945Z,102594.88
2023-02-09T10:29:28.321Z,102588.28
2023-02-09T10:31:54.885Z,102589.03
2023-02-09T10:34:21.399Z,102582.38
2023-02-09T10:36:47.749Z,102579.66
2023-02-09T10:39:14.069Z,102578.50
2023-02-09T10:41:40.394Z,102582.03
2023-02-09T10:44:06.771Z,102578.16
2023-02-09T10:46:33.236Z,102572.69
2023-02-09T10:48:59.592Z,102583.59
2023-02-09T10:51:25.993Z,102578.13
2023-02-09T10:53:52.353Z,102581.59
2023-02-09T10:56:18.701Z,102573.06
2023-02-09T10:58:45.082Z,102574.19
2023-02-09T11:01:11.448Z,102567.25
2023-02-09T11:03:37.850Z,102561.00
2023-02-09T11:06:04.200Z,102561.41
2023-02-09T11:08:30.550Z,102560.22
2023-02-09T11:10:56.882Z,102567.63
2023-02-09T11:13:23.199Z,102570.78
2023-02-09T11:15:49.826Z,102569.56
2023-02-09T11:18:16.247Z,102562.50
2023-02-09T11:20:42.558Z,102563.75
2023-02-09T11:23:08.874Z,102557.53
2023-02-09T11:25:35.229Z,102544.25
2023-02-09T11:28:01.629Z,102549.34
2023-02-09T11:30:28.063Z,102543.09
2023-02-09T11:32:54.571Z,102548.91
2023-02-09T11:35:20.877Z,102551.25
2023-02-09T11:37:47.202Z,102542.28
2023-02-09T11:40:13.574Z,102545.81
2023-02-09T11:42:39.944Z,102554.00
2023-02-09T11:45:08.792Z,102554.78
2023-02-09T11:47:35.260Z,102554.00
2023-02-09T11:50:01.632Z,102554.78
2023-02-09T11:52:27.965Z,102547.75
2023-02-09T11:54:54.330Z,102548.53
2023-02-09T11:57:20.704Z,102559.84
2023-02-09T11:59:47.027Z,102560.63
2023-02-09T12:02:13.395Z,102554.03
2023-02-09T12:04:39.760Z,102554.81
2023-02-09T12:07:06.093Z,102562.59
2023-02-09T12:09:32.481Z,102557.88
2023-02-09T12:11:58.804Z,102554.78
2023-02-09T12:14:25.162Z,102551.69
2023-02-09T12:16:51.530Z,102542.72
2023-02-09T12:19:17.854Z,102548.94
2023-02-09T12:21:44.173Z,102545.47
2023-02-09T12:24:10.595Z,102540.00
2023-02-09T12:26:36.936Z,102534.56
2023-02-09T12:29:03.257Z,102536.09
2023-02-09T12:31:29.676Z,102540.00
2023-02-09T12:33:56.060Z,102538.84
2023-02-09T12:36:22.378Z,102545.50
2023-02-09T12:38:52.251Z,102549.38
2023-02-09T12:41:21.998Z,102538.47
2023-02-09T12:43:48.322Z,102557.16
2023-02-09T12:46:14.691Z,102545.09
2023-02-09T12:48:41.087Z,102547.03
2023-02-09T12:51:07.461Z,102548.22
2023-02-09T12:53:33.783Z,102540.44
2023-02-09T12:56:00.112Z,102546.66
2023-02-09T12:58:26.439Z,102547.03
2023-02-09T13:00:52.831Z,102550.16
2023-02-09T13:03:19.251Z,102562.22
2023-02-09T13:05:45.938Z,102550.53
2023-02-09T13:08:12.424Z,102541.19
2023-02-09T13:10:38.820Z,102550.16
2023-02-09T13:13:05.175Z,102558.72
2023-02-09T13:15:31.538Z,102554.06
2023-02-09T13:17:57.995Z,102560.28
2023-02-09T13:20:24.335Z,102559.50
2023-02-09T13:22:50.812Z,102546.66
2023-02-09T13:25:17.133Z,102541.25
2023-02-09T13:27:43.462Z,102542.81
2023-02-09T13:30:09.918Z,102545.53
2023-02-09T13:32:36.319Z,102549.44
2023-02-09T13:35:02.679Z,102550.22
2023-02-09T13:37:28.985Z,102541.25
2023-02-09T13:39:55.300Z,102543.19
2023-02-09T13:42:21.726Z,102536.97
2023-02-09T13:44:48.095Z,102541.25
2023-02-09T13:47:14.483Z,102536.97
2023-02-09T13:49:40.823Z,102539.69
2023-02-09T13:52:07.132Z,102547.50
2023-02-09T13:54:33.481Z,102551.78
2023-02-09T13:57:00.083Z,102556.81
2023-02-09T13:59:26.436Z,102551.78
2023-02-09T14:01:52.792Z,102545.94
2023-02-09T14:04:19.115Z,102547.88
2023-02-09T14:06:45.438Z,102551.78
2023-02-09T14:09:11.792Z,102554.09
2023-02-09T14:11:42.853Z,102555.28
2023-02-09T14:14:09.517Z,102564.22
2023-02-09T14:16:44.779Z,102551.38
2023-02-09T14:19:17.890Z,102553.75
2023-02-09T14:21:44.214Z,102552.59
2023-02-09T14:24:12.561Z,102552.16
2023-02-09T14:26:39.049Z,102547.47
2023-02-09T14:29:05.402Z,102537.00
2023-02-09T14:31:31.710Z,102554.09
2023-02-09T14:33:58.084Z,102550.22
2023-02-09T14:36:24.471Z,102553.72
2023-02-09T14:38:50.825Z,102551.00
2023-02-09T14:41:17.185Z,102545.16
2023-02-09T14:43:43.550Z,102541.66
2023-02-09T14:46:09.980Z,102561.47
2023-02-09T14:48:36.323Z,102563.81
2023-02-09T14:51:02.634Z,102568.13
2023-02-09T14:53:29.044Z,102571.22
2023-02-09T14:55:55.360Z,102570.06
2023-02-09T14:58:21.769Z,102575.09
2023-02-09T15:00:48.191Z,102568.13
2023-02-09T15:03:14.546Z,102574.34
2023-02-09T15:05:40.837Z,102580.16
2023-02-09T15:08:07.162Z,102583.66
2023-02-09T15:10:33.528Z,102581.72
2023-02-09T15:12:59.844Z,102587.56
2023-02-09T15:15:26.207Z,102584.03
2023-02-09T15:17:52.586Z,102587.56
2023-02-09T15:20:18.908Z,102597.66
2023-02-09T15:22:45.272Z,102596.88
2023-02-09T15:25:11.676Z,102600.38
2023-02-09T15:27:38.040Z,102599.59
2023-02-09T15:30:05.042Z,102610.50
2023-02-09T15:32:31.487Z,102607.78
2023-02-09T15:34:57.852Z,102605.84
2023-02-09T15:37:24.206Z,102615.94
2023-02-09T15:39:50.549Z,102619.44
2023-02-09T15:42:16.842Z,102626.06
2023-02-09T15:44:43.260Z,102624.09
2023-02-09T15:47:09.636Z,102624.88
2023-02-09T15:49:35.966Z,102626.84
2023-02-09T15:52:02.324Z,102631.13
2023-02-09T15:54:28.662Z,102635.41
2023-02-09T15:56:55.006Z,102638.50
2023-02-09T15:59:21.398Z,102639.69
2023-02-09T16:01:47.835Z,102649.78
2023-02-09T16:04:14.863Z,102652.88
2023-02-09T16:06:41.351Z,102656.41
2023-02-09T16:09:07.674Z,102665.72
2023-02-09T16:11:34.074Z,102663.41
2023-02-09T16:14:00.454Z,102664.56
2023-02-09T16:16:26.789Z,102668.44
2023-02-09T16:18:53.174Z,102670.00
2023-02-09T16:21:19.551Z,102669.63
2023-02-09T16:23:45.877Z,102676.22
2023-02-09T16:26:12.177Z,102669.22
2023-02-09T16:28:38.600Z,102664.19
2023-02-09T16:31:04.980Z,102675.81
2023-02-09T16:33:31.340Z,102675.06
2023-02-09T16:35:57.702Z,102678.53
2023-02-09T16:38:24.047Z,102681.66
2023-02-09T16:40:50.408Z,102684.78
2023-02-09T16:43:16.736Z,102675.44
2023-02-09T16:45:48.515Z,102682.81
2023-02-09T16:48:20.424Z,102680.91
2023-02-09T16:50:47.030Z,102684.00
2023-02-09T16:53:13.614Z,102683.59
2023-02-09T16:55:40.016Z,102682.81
2023-02-09T16:58:06.365Z,102685.94
2023-02-09T17:00:32.761Z,102685.94
2023-02-09T17:02:59.093Z,102687.88
2023-02-09T17:05:25.395Z,102689.44
2023-02-09T17:07:54.784Z,102687.13
2023-02-09T17:10:21.602Z,102692.56
2023-02-09T17:12:48.010Z,102699.56
2023-02-09T17:15:28.492Z,102706.94
2023-02-09T17:17:56.236Z,102708.50
2023-02-09T17:20:22.595Z,102715.91
2023-02-09T17:22:48.951Z,102721.34
2023-02-09T17:25:15.428Z,102717.44
2023-02-09T17:27:41.803Z,102720.16
2023-02-09T17:30:08.157Z,102718.22
2023-02-09T17:32:34.491Z,102720.56
2023-02-09T17:35:00.807Z,102721.31
2023-02-09T17:37:27.114Z,102714.69
2023-02-09T17:39:53.479Z,102724.81
2023-02-09T17:42:19.813Z,102724.44
2023-02-09T17:44:46.926Z,102730.25
2023-02-09T17:47:13.384Z,102728.31
2023-02-09T17:49:39.751Z,102730.66
2023-02-09T17:52:06.092Z,102724.06
2023-02-09T17:54:32.452Z,102715.50
2023-02-09T17:56:58.873Z,102720.53
2023-02-09T17:59:25.204Z,102715.09
2023-02-09T18:01:51.598Z,102721.31
2023-02-09T18:04:17.927Z,102732.97
2023-02-09T18:06:44.230Z,102734.94
2023-02-09T18:09:10.551Z,102741.91
2023-02-09T18:11:36.921Z,102746.19
2023-02-09T18:14:03.351Z,102743.88
2023-02-09T18:16:29.677Z,102750.09
2023-02-09T18:18:56.035Z,102740.75
2023-02-09T18:21:22.370Z,102745.41
2023-02-09T18:23:48.744Z,102747.75
2023-02-09T18:26:15.082Z,102752.44
2023-02-09T18:28:41.411Z,102754.00
2023-02-09T18:31:07.823Z,102764.09
2023-02-09T18:33:34.144Z,102766.81
2023-02-09T18:36:00.530Z,102769.94
2023-02-09T18:38:26.933Z,102766.03
2023-02-09T18:40:53.294Z,102766.41
2023-02-09T18:43:19.611Z,102770.69
2023-02-09T18:45:46.257Z,102776.53
2023-02-09T18:48:12.817Z,102780.41
2023-02-09T18:50:39.200Z,102787.03
2023-02-09T18:53:05.588Z,102784.69
2023-02-09T18:55:31.970Z,102796.00
2023-02-09T18:57:58.309Z,102794.03
2023-02-09T19:00:24.659Z,102801.41
2023-02-09T19:02:51.072Z,102813.06
2023-02-09T19:05:17.476Z,102806.84
2023-02-09T19:07:43.837Z,102809.56
2023-02-09T19:10:10.169Z,102811.91
2023-02-09T19:12:36.490Z,102809.97
2023-02-09T19:15:02.861Z,102811.13
2023-02-09T19:17:29.225Z,102815.41
2023-02-09T19:19:55.602Z,102822.03
2023-02-09T19:22:21.987Z,102820.84
2023-02-09T19:24:48.320Z,102818.91
2023-02-09T19:27:14.642Z,102823.56
2023-02-09T19:29:40.963Z,102822.78
2023-02-09T19:32:07.278Z,102828.25
2023-02-09T19:34:33.621Z,102830.22
2023-02-09T19:36:59.930Z,102828.25
2023-02-09T19:39:26.232Z,102832.50
2023-02-09T19:41:52.546Z,102826.69
2023-02-09T19:44:18.922Z,102829.78
2023-02-09T19:46:45.337Z,102841.84
2023-02-09T19:49:11.713Z,102834.88
2023-02-09T19:51:38.059Z,102833.31
2023-02-09T19:54:04.428Z,102831.34
2023-02-09T19:56:30.732Z,102835.25
2023-02-09T19:58:57.108Z,102826.31
2023-02-09T20:01:23.483Z,102825.50
2023-02-09T20:03:49.856Z,102833.31
2023-02-09T20:06:16.221Z,102835.63
2023-02-09T20:08:42.545Z,102834.44
2023-02-09T20:11:09.160Z,102840.31
2023-02-09T20:13:35.508Z,102847.69
2023-02-09T20:16:01.933Z,102853.88
2023-02-09T20:18:28.413Z,102851.19
2023-02-09T20:20:54.889Z,102848.06
2023-02-09T20:23:21.264Z,102847.69
2023-02-09T20:25:47.610Z,102848.84
2023-02-09T20:28:14.023Z,102855.84
2023-02-09T20:30:40.448Z,102859.72
2023-02-09T20:33:06.811Z,102867.53
2023-02-09T20:35:33.199Z,102871.38
2023-02-09T20:37:59.582Z,102874.50
2023-02-09T20:40:25.978Z,102875.69
2023-02-09T20:42:52.330Z,102876.88
2023-02-09T20:45:18.718Z,102873.00
2023-02-09T20:47:45.062Z,102871.78
2023-02-09T20:50:11.430Z,102876.09
2023-02-09T20:52:37.747Z,102873.00
2023-02-09T20:55:04.087Z,102871.03
2023-02-09T20:57:30.415Z,102869.06
2023-02-09T20:59:56.746Z,102876.88
2023-02-09T21:02:23.149Z,102881.13
2023-02-09T21:04:49.571Z,102885.00
2023-02-09T21:07:15.891Z,102883.06
2023-02-09T21:09:42.195Z,102887.72
2023-02-09T21:12:08.549Z,102899.38
2023-02-09T21:14:41.807Z,102893.94
2023-02-09T21:17:09.260Z,102901.34
2023-02-09T21:19:36.556Z,102914.56
2023-02-09T21:22:02.912Z,102918.44
2023-02-09T21:24:29.303Z,102917.66
2023-02-09T21:26:55.660Z,102924.28
2023-02-09T21:29:21.997Z,102913.38
2023-02-09T21:31:48.409Z,102913.81
2023-02-09T21:34:14.838Z,102916.53
2023-02-09T21:36:41.164Z,102909.53
2023-02-09T21:39:07.492Z,102911.84
2023-02-09T21:41:33.856Z,102910.66
2023-02-09T21:44:00.258Z,102909.91
2023-02-09T21:46:26.666Z,102907.16
2023-02-09T21:48:52.989Z,102904.06
2023-02-09T21:51:19.369Z,102908.72
2023-02-09T21:53:45.686Z,102904.44
2023-02-09T21:56:12.116Z,102914.94
2023-02-09T21:58:38.487Z,102918.81
2023-02-09T22:01:04.888Z,102924.69
2023-02-09T22:03:31.255Z,102914.94
2023-02-09T22:05:57.565Z,102923.13
2023-02-09T22:08:23.926Z,102921.97
2023-02-09T22:10:51.483Z,102927.78
2023-02-09T22:13:19.034Z,102936.34
2023-02-09T22:15:45.369Z,102931.66
2023-02-09T22:18:11.758Z,102936.34
2023-02-09T22:20:38.135Z,102937.53
2023-02-09T22:23:04.457Z,102944.53
2023-02-09T22:25:30.794Z,102937.91
2023-02-09T22:27:57.252Z,102941.41
2023-02-09T22:30:23.641Z,102946.06
2023-02-09T22:32:50.016Z,102939.84
2023-02-09T22:35:16.372Z,102934.81
2023-02-09T22:37:42.733Z,102937.91
2023-02-09T22:40:09.086Z,102932.88
2023-02-09T22:42:35.469Z,102937.91
2023-02-09T22:45:01.821Z,102942.97
2023-02-09T22:47:28.219Z,102944.56
2023-02-09T22:49:54.584Z,102940.63
2023-02-09T22:52:20.921Z,102941.41
2023-02-09T22:54:47.251Z,102945.31
2023-02-09T22:57:13.656Z,102941.84
2023-02-09T22:59:40.020Z,102946.84
2023-02-09T23:02:06.344Z,102945.28
2023-02-09T23:04:32.738Z,102941.41
2023-02-09T23:06:59.082Z,102940.28
2023-02-09T23:09:25.441Z,102950.75
2023-02-09T23:11:51.878Z,102948.81
2023-02-09T23:14:18.251Z,102946.88
2023-02-09T23:16:44.617Z,102947.66
2023-02-09T23:19:10.998Z,102947.25
2023-02-09T23:21:37.399Z,102951.50
2023-02-09T23:24:03.768Z,102950.72
2023-02-09T23:26:30.100Z,102953.88
2023-02-09T23:28:57.230Z,102953.44
2023-02-09T23:31:23.871Z,102958.53
2023-02-09T23:33:50.262Z,102959.69
2023-02-09T23:36:16.637Z,102955.03
2023-02-09T23:38:42.962Z,102947.25
2023-02-09T23:41:09.294Z,102951.13
2023-02-09T23:43:35.620Z,102949.19
2023-02-09T23:46:02.012Z,102952.28
2023-02-09T23:48:28.345Z,102952.72
2023-02-09T23:50:54.727Z,102956.59
2023-02-09T23:53:21.091Z,102953.47
2023-02-09T23:55:47.790Z,102953.88
2023-02-09T23:58:14.307Z,102947.66
